Time;durP1;ratioP1;P1;durP2;ratioP2;P2;SDS_P1;SDS_P2;PMS_P1;PMS_P2;Temp;Humidity;BMP_temperature;BMP_pressure;BME280_temperature;BME280_humidity;BME280_pressure;Samples;Min_cycle;Max_cycle;Signal;HPM_P1;HPM_P2
2021/10/18 00:00:00;;;;;;;45.78;20.10;;;8.00;99.90;;;;;;5016887;28;20202;-78
2021/10/18 00:02:27;;;;;;;29.95;18.02;;;7.80;99.90;;;;;;5017315;28;20203;-78
2021/10/18 00:04:54;;;;;;;25.88;15.48;;;7.80;99.90;;;;;;5016643;28;20577;-79
2021/10/18 00:07:22;;;;;;;30.45;13.85;;;7.80;99.90;;;;;;5017240;28;20215;-78
2021/10/18 00:09:50;;;;;;;32.28;16.63;;;7.80;99.90;;;;;;5017049;28;20238;-80
2021/10/18 00:12:17;;;;;;;44.63;18.42;;;7.60;99.90;;;;;;5016992;28;20203;-79
2021/10/18 00:14:44;;;;;;;32.47;17.35;;;7.70;99.90;;;;;;5017330;28;20195;-79
2021/10/18 00:17:11;;;;;;;22.63;14.98;;;7.60;99.90;;;;;;5017574;28;20203;-79
2021/10/18 00:19:39;;;;;;;27.38;15.55;;;7.60;99.90;;;;;;5017226;28;20223;-78
2021/10/18 00:22:06;;;;;;;33.63;19.02;;;7.50;99.90;;;;;;5017202;28;20219;-79
2021/10/18 00:24:33;;;;;;;29.95;17.80;;;7.40;99.90;;;;;;5015785;28;20225;-78
2021/10/18 00:27:01;;;;;;;30.10;18.60;;;7.30;99.90;;;;;;5015723;28;20676;-79
2021/10/18 00:29:27;;;;;;;36.53;17.92;;;7.20;99.90;;;;;;5016420;28;20708;-80
2021/10/18 00:31:54;;;;;;;34.55;17.88;;;7.20;99.90;;;;;;5017282;28;20215;-78
2021/10/18 00:34:21;;;;;;;32.47;19.63;;;7.30;99.90;;;;;;5016389;28;20207;-78
2021/10/18 00:36:47;;;;;;;27.52;16.10;;;7.30;99.90;;;;;;5016617;28;20218;-79
2021/10/18 00:39:14;;;;;;;33.60;18.98;;;7.30;99.90;;;;;;5016256;28;20738;-78
2021/10/18 00:41:41;;;;;;;29.20;16.63;;;7.40;99.90;;;;;;5017106;28;20206;-78
2021/10/18 00:44:09;;;;;;;34.00;18.85;;;7.60;99.90;;;;;;5016281;28;20219;-79
2021/10/18 00:46:36;;;;;;;35.95;19.77;;;7.70;99.90;;;;;;5016026;28;20217;-79
2021/10/18 00:49:03;;;;;;;35.40;17.70;;;7.80;99.90;;;;;;5016987;28;20219;-79
2021/10/18 00:51:30;;;;;;;37.83;21.13;;;7.80;99.90;;;;;;5016384;28;20203;-79
2021/10/18 00:53:59;;;;;;;36.58;19.42;;;7.80;99.90;;;;;;5016683;28;20212;-78
2021/10/18 00:56:27;;;;;;;35.38;19.65;;;7.90;99.90;;;;;;5015966;28;20210;-79
2021/10/18 00:58:56;;;;;;;36.60;19.85;;;7.80;99.90;;;;;;5015749;28;20223;-80
2021/10/18 01:01:25;;;;;;;30.75;20.85;;;7.80;99.90;;;;;;5002276;28;20206;-79
2021/10/18 01:03:52;;;;;;;33.53;19.58;;;7.90;99.90;;;;;;5016232;28;20219;-79
2021/10/18 01:06:19;;;;;;;34.33;17.55;;;7.90;99.90;;;;;;5016355;28;20210;-79
2021/10/18 01:08:45;;;;;;;31.75;18.95;;;7.80;99.90;;;;;;5016044;28;20750;-79
2021/10/18 01:11:12;;;;;;;31.42;19.65;;;7.70;99.90;;;;;;5015914;28;20199;-80
2021/10/18 01:13:39;;;;;;;40.15;20.50;;;7.60;99.90;;;;;;5016114;28;20207;-79
2021/10/18 01:16:07;;;;;;;43.47;19.92;;;7.60;99.90;;;;;;5016336;28;20207;-78
2021/10/18 01:18:35;;;;;;;39.63;19.58;;;7.40;99.90;;;;;;5016643;28;20266;-79
2021/10/18 01:21:03;;;;;;;33.42;18.92;;;7.60;99.90;;;;;;5016064;28;20208;-79
2021/10/18 01:23:30;;;;;;;33.78;21.52;;;7.70;99.90;;;;;;5014102;28;20694;-79
2021/10/18 01:25:57;;;;;;;35.05;21.60;;;7.80;99.90;;;;;;5012712;28;20200;-79
2021/10/18 01:28:24;;;;;;;31.30;18.90;;;7.80;99.90;;;;;;5012864;28;20235;-79
2021/10/18 01:30:51;;;;;;;36.90;21.98;;;7.90;99.90;;;;;;5013387;28;20262;-80
2021/10/18 01:33:18;;;;;;;41.28;23.13;;;7.80;99.90;;;;;;5013007;28;20214;-79
2021/10/18 01:35:46;;;;;;;38.13;20.83;;;7.90;99.90;;;;;;5012957;28;20203;-79
2021/10/18 01:38:14;;;;;;;40.03;19.35;;;8.10;99.90;;;;;;5013652;28;20238;-79
2021/10/18 01:40:41;;;;;;;32.83;17.90;;;8.10;99.90;;;;;;5016989;28;20199;-79
2021/10/18 01:43:07;;;;;;;30.88;21.52;;;8.10;99.90;;;;;;5016259;28;20199;-79
2021/10/18 01:45:34;;;;;;;39.10;22.05;;;8.10;99.90;;;;;;5016267;28;20223;-79
2021/10/18 01:48:01;;;;;;;44.17;23.45;;;8.00;99.90;;;;;;5017028;28;20229;-80
2021/10/18 01:50:29;;;;;;;33.45;22.05;;;8.10;99.90;;;;;;5017108;28;20206;-79
2021/10/18 01:52:56;;;;;;;33.55;19.98;;;8.20;99.90;;;;;;5016458;28;20635;-79
2021/10/18 01:55:24;;;;;;;34.30;21.70;;;8.30;99.90;;;;;;5016429;28;20208;-79
2021/10/18 01:57:52;;;;;;;35.28;22.17;;;8.30;99.90;;;;;;5016297;28;20207;-79
2021/10/18 02:00:19;;;;;;;36.70;19.33;;;8.30;99.90;;;;;;5016631;28;20210;-79
2021/10/18 02:02:47;;;;;;;39.33;22.45;;;8.10;99.90;;;;;;5016261;28;20215;-80
2021/10/18 02:05:14;;;;;;;38.42;19.75;;;8.20;99.90;;;;;;5015964;28;20223;-78
2021/10/18 02:07:42;;;;;;;45.05;24.15;;;8.10;99.90;;;;;;5015778;28;20206;-79
2021/10/18 02:10:09;;;;;;;38.08;21.38;;;7.90;99.90;;;;;;5016040;28;20218;-79
2021/10/18 02:12:37;;;;;;;45.78;22.88;;;7.90;99.90;;;;;;5016295;28;20207;-80
2021/10/18 02:15:05;;;;;;;56.78;24.27;;;8.00;99.90;;;;;;5015709;28;20214;-80
2021/10/18 02:17:31;;;;;;;35.97;22.25;;;8.00;99.90;;;;;;5016156;28;20211;-79
2021/10/18 02:19:58;;;;;;;54.90;22.83;;;8.10;99.90;;;;;;5015492;28;20226;-80
2021/10/18 02:22:25;;;;;;;38.40;23.60;;;8.20;99.90;;;;;;5015513;28;20204;-79
2021/10/18 02:24:52;;;;;;;44.55;23.35;;;8.20;99.90;;;;;;5015291;28;20704;-79
2021/10/18 02:27:19;;;;;;;40.38;20.17;;;8.10;99.90;;;;;;5015898;28;20212;-79
2021/10/18 02:29:47;;;;;;;37.70;20.92;;;8.00;99.90;;;;;;5017704;28;20227;-79
2021/10/18 02:32:14;;;;;;;46.45;25.08;;;8.10;99.90;;;;;;5018007;28;20203;-79
2021/10/18 02:34:40;;;;;;;43.67;24.08;;;8.20;99.90;;;;;;5018861;28;20225;-80
2021/10/18 02:37:07;;;;;;;50.47;24.98;;;8.20;99.90;;;;;;5018932;28;20215;-79
2021/10/18 02:39:34;;;;;;;41.35;22.90;;;8.30;99.90;;;;;;5018274;28;20234;-79
2021/10/18 02:42:01;;;;;;;48.22;24.30;;;8.30;99.90;;;;;;5018492;28;20211;-79
2021/10/18 02:44:28;;;;;;;45.95;25.95;;;8.40;99.90;;;;;;5018842;28;20234;-78
2021/10/18 02:46:56;;;;;;;38.35;22.30;;;8.50;99.90;;;;;;5018197;28;20215;-79
2021/10/18 02:49:23;;;;;;;40.90;24.33;;;8.40;99.90;;;;;;5018255;28;20234;-79
2021/10/18 02:51:50;;;;;;;36.50;20.83;;;8.50;99.90;;;;;;5018689;28;20210;-79
2021/10/18 02:54:17;;;;;;;38.35;21.75;;;8.40;99.90;;;;;;5018854;28;20212;-80
2021/10/18 02:56:44;;;;;;;46.22;24.00;;;8.30;99.90;;;;;;5017939;28;20279;-79
2021/10/18 02:59:11;;;;;;;43.58;22.35;;;8.50;99.90;;;;;;5017816;28;20234;-80
2021/10/18 03:01:38;;;;;;;37.80;20.45;;;8.40;99.90;;;;;;5018168;28;20195;-79
2021/10/18 03:04:06;;;;;;;37.40;21.35;;;8.50;99.90;;;;;;5018364;28;20223;-78
2021/10/18 03:06:33;;;;;;;32.33;18.83;;;8.60;99.90;;;;;;5017410;28;20565;-78
2021/10/18 03:09:00;;;;;;;37.95;21.63;;;8.60;99.90;;;;;;5018024;28;20231;-79
2021/10/18 03:11:26;;;;;;;35.95;22.90;;;8.60;99.90;;;;;;5018124;28;20215;-79
2021/10/18 03:13:53;;;;;;;33.80;20.08;;;8.50;99.90;;;;;;5018624;28;20708;-79
2021/10/18 03:16:20;;;;;;;31.27;21.58;;;8.40;99.90;;;;;;5018364;28;20203;-79
2021/10/18 03:18:47;;;;;;;37.67;20.00;;;8.50;99.90;;;;;;5017923;28;20238;-79
2021/10/18 03:21:16;;;;;;;30.38;18.33;;;8.60;99.90;;;;;;5017492;28;20203;-79
2021/10/18 03:23:43;;;;;;;39.38;22.88;;;8.60;99.90;;;;;;5017565;28;20207;-79
2021/10/18 03:26:10;;;;;;;44.55;20.65;;;8.70;99.90;;;;;;5017369;28;20230;-78
2021/10/18 03:28:36;;;;;;;33.28;23.73;;;8.50;99.90;;;;;;5017314;28;20234;-79
2021/10/18 03:31:03;;;;;;;37.72;23.38;;;8.50;99.90;;;;;;5017904;28;20207;-79
2021/10/18 03:33:33;;;;;;;40.42;24.65;;;8.60;99.90;;;;;;5018570;28;20215;-79
2021/10/18 03:36:00;;;;;;;43.25;22.38;;;8.60;99.90;;;;;;5018300;28;20188;-79
2021/10/18 03:38:28;;;;;;;35.97;22.60;;;8.60;99.90;;;;;;5018292;28;20716;-79
2021/10/18 03:40:55;;;;;;;41.80;22.02;;;8.60;99.90;;;;;;5018319;28;20208;-79
2021/10/18 03:43:22;;;;;;;30.88;19.35;;;8.70;99.90;;;;;;5017974;28;20211;-79
2021/10/18 03:45:48;;;;;;;37.28;20.20;;;8.60;99.90;;;;;;5018166;28;20224;-79
2021/10/18 03:48:15;;;;;;;29.25;20.30;;;8.70;99.90;;;;;;5017816;28;20727;-79
2021/10/18 03:50:42;;;;;;;31.60;17.75;;;8.60;99.90;;;;;;5018064;28;20214;-80
2021/10/18 03:53:09;;;;;;;34.40;22.27;;;8.60;99.90;;;;;;5017501;28;20203;-78
2021/10/18 03:55:37;;;;;;;34.78;19.70;;;8.60;99.90;;;;;;5017739;28;20215;-79
2021/10/18 03:58:04;;;;;;;32.88;19.52;;;8.50;99.90;;;;;;5017374;28;20231;-78
2021/10/18 04:00:31;;;;;;;29.40;21.13;;;8.40;99.90;;;;;;5017546;28;20209;-78
2021/10/18 04:02:58;;;;;;;29.98;18.48;;;8.50;99.90;;;;;;5016818;28;20200;-78
2021/10/18 04:05:25;;;;;;;31.73;20.25;;;8.60;99.90;;;;;;5017216;28;20223;-79
2021/10/18 04:07:52;;;;;;;35.20;20.02;;;8.50;99.90;;;;;;5016918;28;20587;-78
2021/10/18 04:10:19;;;;;;;29.75;17.38;;;8.50;99.90;;;;;;5017588;28;20195;-78
2021/10/18 04:12:47;;;;;;;30.92;18.67;;;8.60;99.90;;;;;;5016035;28;20199;-78
2021/10/18 04:15:14;;;;;;;33.30;18.73;;;8.60;99.90;;;;;;5016382;28;20207;-78
2021/10/18 04:17:42;;;;;;;34.38;20.13;;;8.70;99.90;;;;;;5015362;28;20206;-79
2021/10/18 04:20:09;;;;;;;36.10;23.50;;;8.60;99.90;;;;;;5014403;28;20290;-79
2021/10/18 04:22:36;;;;;;;36.10;22.25;;;8.60;99.90;;;;;;5014961;28;20632;-78
2021/10/18 04:25:04;;;;;;;36.50;22.45;;;8.70;99.90;;;;;;5016884;28;20227;-80
2021/10/18 04:27:30;;;;;;;35.20;22.88;;;8.70;99.90;;;;;;5015871;28;20207;-78
2021/10/18 04:29:58;;;;;;;29.60;19.17;;;8.80;99.90;;;;;;5015852;28;20231;-79
2021/10/18 04:32:25;;;;;;;38.95;21.23;;;8.70;99.90;;;;;;5016779;28;20211;-80
2021/10/18 04:34:52;;;;;;;31.77;18.40;;;8.70;99.90;;;;;;5016479;28;20569;-79
2021/10/18 04:37:19;;;;;;;34.55;18.77;;;8.60;99.90;;;;;;5016448;28;20210;-78
2021/10/18 04:39:45;;;;;;;27.65;18.98;;;8.60;99.90;;;;;;5016482;28;20255;-79
2021/10/18 04:42:12;;;;;;;34.05;18.58;;;8.60;99.90;;;;;;5016232;28;20229;-79
2021/10/18 04:44:39;;;;;;;26.42;17.55;;;8.60;99.90;;;;;;5016357;28;20578;-79
2021/10/18 04:47:07;;;;;;;26.63;17.38;;;8.60;99.90;;;;;;5015629;28;20208;-80
2021/10/18 04:49:34;;;;;;;30.33;18.45;;;8.60;99.90;;;;;;5013605;28;20223;-80
2021/10/18 04:52:00;;;;;;;32.72;17.80;;;8.60;99.90;;;;;;5013535;28;20564;-79
2021/10/18 04:54:27;;;;;;;29.45;18.83;;;8.50;99.90;;;;;;5013208;28;20203;-80
2021/10/18 04:56:54;;;;;;;33.50;20.50;;;8.60;99.90;;;;;;5013049;28;20199;-79
2021/10/18 04:59:21;;;;;;;33.83;20.98;;;8.60;99.90;;;;;;5013349;28;20227;-79
2021/10/18 05:01:47;;;;;;;32.33;17.77;;;8.70;99.90;;;;;;5013203;28;20204;-79
2021/10/18 05:04:15;;;;;;;30.98;18.23;;;8.80;99.90;;;;;;5013219;28;20210;-79
2021/10/18 05:06:42;;;;;;;35.90;20.08;;;8.70;99.90;;;;;;5012856;28;20228;-80
2021/10/18 05:09:09;;;;;;;32.88;20.27;;;8.80;99.90;;;;;;5088052;23;20241;-82
2021/10/18 05:11:36;;;;;;;34.65;20.92;;;8.80;99.90;;;;;;5022024;28;20212;-82
2021/10/18 05:14:04;;;;;;;32.58;19.77;;;8.80;99.90;;;;;;5037482;28;20217;-82
2021/10/18 05:16:30;;;;;;;32.72;20.50;;;8.90;99.90;;;;;;5045794;28;20210;-82
2021/10/18 05:18:57;;;;;;;37.50;21.73;;;8.80;99.90;;;;;;5039527;28;20225;-82
2021/10/18 05:21:25;;;;;;;28.73;21.13;;;8.90;99.90;;;;;;5046533;28;20233;-82
2021/10/18 05:23:52;;;;;;;34.97;21.35;;;8.90;99.90;;;;;;5034375;28;20202;-82
2021/10/18 05:26:19;;;;;;;36.30;23.10;;;8.90;99.90;;;;;;5043446;28;20233;-82
2021/10/18 05:28:45;;;;;;;35.25;20.77;;;8.90;99.90;;;;;;5036535;28;20223;-82
2021/10/18 05:31:12;;;;;;;32.05;19.15;;;9.00;99.90;;;;;;5043832;28;20210;-82
2021/10/18 05:33:39;;;;;;;29.08;18.35;;;9.10;99.90;;;;;;5037616;28;20298;-82
2021/10/18 05:36:06;;;;;;;32.63;21.15;;;9.10;99.90;;;;;;5025928;28;20199;-82
2021/10/18 05:38:34;;;;;;;34.85;21.20;;;9.20;99.90;;;;;;5041329;28;20230;-82
2021/10/18 05:41:00;;;;;;;32.92;21.35;;;9.10;99.90;;;;;;5027541;28;20199;-82
2021/10/18 05:43:27;;;;;;;33.28;20.90;;;9.20;99.90;;;;;;5038412;28;20211;-82
2021/10/18 05:45:54;;;;;;;34.35;21.50;;;9.20;99.90;;;;;;5029872;28;20219;-82
2021/10/18 05:48:20;;;;;;;31.05;19.70;;;9.20;99.90;;;;;;5026278;28;20230;-82
2021/10/18 05:50:47;;;;;;;25.23;17.33;;;9.20;99.90;;;;;;5039365;28;20205;-83
2021/10/18 05:53:14;;;;;;;43.47;22.95;;;9.20;99.90;;;;;;5036370;28;20207;-82
2021/10/18 05:55:42;;;;;;;35.28;23.27;;;9.20;99.90;;;;;;5026930;28;20200;-82
2021/10/18 05:58:11;;;;;;;37.53;21.67;;;9.30;99.90;;;;;;5032868;28;20207;-83
2021/10/18 06:00:39;;;;;;;35.72;22.50;;;9.20;99.90;;;;;;5045938;28;20200;-82
2021/10/18 06:03:07;;;;;;;35.15;21.80;;;9.30;99.90;;;;;;5033949;28;20211;-82
2021/10/18 06:05:42;;;;;;;31.50;19.77;;;9.30;99.90;;;;;;5025672;28;20223;-83
2021/10/18 06:08:09;;;;;;;32.50;23.73;;;9.30;99.90;;;;;;5024391;28;20211;-84
2021/10/18 06:10:36;;;;;;;42.95;21.80;;;9.30;99.90;;;;;;5031389;28;20451;-84
2021/10/18 06:13:05;;;;;;;41.17;21.15;;;9.30;99.90;;;;;;5040986;28;20208;-85
2021/10/18 06:15:32;;;;;;;40.83;21.33;;;9.30;99.90;;;;;;5040780;28;20217;-86
2021/10/18 06:18:08;;;;;;;39.50;21.20;;;9.40;99.90;;;;;;5030044;28;20214;-84
2021/10/18 06:20:34;;;;;;;30.88;20.33;;;9.40;99.90;;;;;;5020457;28;20210;-82
2021/10/18 06:23:05;;;;;;;37.22;20.70;;;9.40;99.90;;;;;;5029190;28;20673;-81
2021/10/18 06:25:32;;;;;;;30.83;20.50;;;9.40;99.90;;;;;;5039834;28;20228;-85
2021/10/18 06:27:59;;;;;;;32.65;21.60;;;9.40;99.90;;;;;;5040758;28;20220;-85
2021/10/18 06:30:27;;;;;;;32.72;21.02;;;9.30;99.90;;;;;;5041810;28;20212;-85
2021/10/18 06:32:54;;;;;;;34.72;21.42;;;9.40;99.90;;;;;;5034147;28;20204;-85
2021/10/18 06:35:21;;;;;;;37.53;19.67;;;9.50;99.90;;;;;;5021693;28;20669;-85
2021/10/18 06:37:48;;;;;;;33.85;19.48;;;9.50;99.90;;;;;;5041029;28;20208;-86
2021/10/18 06:40:15;;;;;;;32.17;19.98;;;9.40;99.90;;;;;;5054455;28;20234;-83
2021/10/18 06:42:43;;;;;;;30.80;21.40;;;9.50;99.90;;;;;;5053428;28;20305;-82
2021/10/18 06:45:11;;;;;;;29.40;20.17;;;9.60;99.90;;;;;;5032270;28;20456;-85
2021/10/18 06:47:39;;;;;;;26.00;17.80;;;9.60;99.90;;;;;;5020965;28;20449;-85
2021/10/18 06:50:07;;;;;;;23.70;16.33;;;9.70;99.90;;;;;;5038110;28;20502;-85
2021/10/18 06:52:35;;;;;;;28.05;16.67;;;9.80;99.90;;;;;;5041192;28;20290;-84
2021/10/18 06:55:05;;;;;;;24.17;17.63;;;9.80;99.90;;;;;;5028205;28;20212;-85
2021/10/18 06:57:32;;;;;;;27.17;15.35;;;9.90;99.90;;;;;;5023804;28;20459;-85
2021/10/18 06:59:59;;;;;;;30.53;16.37;;;9.90;99.90;;;;;;5034007;28;20232;-88
2021/10/18 07:02:26;;;;;;;23.60;16.03;;;10.00;99.90;;;;;;5029872;28;20455;-87
2021/10/18 07:04:54;;;;;;;20.77;15.97;;;10.10;99.90;;;;;;5044772;28;20438;-86
2021/10/18 07:07:21;;;;;;;23.43;15.50;;;10.10;99.90;;;;;;5040022;28;20495;-84
2021/10/18 07:09:48;;;;;;;16.93;13.80;;;10.30;99.90;;;;;;5038739;28;20485;-86
2021/10/18 07:12:15;;;;;;;19.53;15.57;;;10.30;99.90;;;;;;5020601;28;20456;-84
2021/10/18 07:14:42;;;;;;;19.50;14.07;;;10.30;99.90;;;;;;5021656;28;20453;-81
2021/10/18 07:17:08;;;;;;;21.93;15.70;;;10.30;99.90;;;;;;5028160;28;20966;-83
2021/10/18 07:19:35;;;;;;;21.07;13.60;;;10.40;99.90;;;;;;5032146;28;20485;-84
2021/10/18 07:22:03;;;;;;;23.50;14.90;;;10.40;99.90;;;;;;5022223;28;20452;-83
2021/10/18 07:24:30;;;;;;;20.70;15.50;;;10.40;99.90;;;;;;5037625;28;20455;-83
2021/10/18 07:26:57;;;;;;;21.40;17.37;;;10.40;99.90;;;;;;5037750;28;20488;-83
2021/10/18 07:29:24;;;;;;;14.87;12.00;;;10.50;99.90;;;;;;5039086;28;20480;-83
2021/10/18 07:31:50;;;;;;;17.53;14.93;;;10.50;99.90;;;;;;5033803;28;20543;-84
2021/10/18 07:37:25;;;;;;;20.47;14.67;;;10.50;99.90;;;;;;4993911;28;20518;-85
2021/10/18 07:40:07;;;;;;;16.77;14.13;;;10.50;99.90;;;;;;5032980;28;20501;-85
2021/10/18 07:58:39;;;;;;;23.05;16.23;;;10.40;99.90;;;;;;5132968;28;20236;-82
2021/10/18 08:01:07;;;;;;;18.30;15.83;;;10.40;99.90;;;;;;5117556;28;20205;-83
2021/10/18 08:03:34;;;;;;;19.98;15.52;;;10.40;99.90;;;;;;5119545;28;20529;-81
2021/10/18 08:06:09;;;;;;;23.13;16.70;;;10.30;99.90;;;;;;5116766;28;20207;-83
2021/10/18 08:08:51;;;;;;;22.05;16.38;;;10.40;99.90;;;;;;5112968;28;20474;-85
2021/10/18 08:11:21;;;;;;;25.80;16.60;;;10.30;99.90;;;;;;5108063;28;20284;-85
2021/10/18 08:13:49;;;;;;;22.90;17.67;;;10.20;99.90;;;;;;5118181;28;20463;-85
2021/10/18 08:16:16;;;;;;;19.40;16.20;;;10.40;99.90;;;;;;5113754;28;20451;-87
2021/10/18 08:18:43;;;;;;;21.00;15.33;;;10.40;99.90;;;;;;5120905;28;20548;-86
2021/10/18 08:21:12;;;;;;;21.10;15.60;;;10.30;99.90;;;;;;5124556;28;20472;-87
2021/10/18 08:23:39;;;;;;;21.57;17.73;;;10.20;99.90;;;;;;5125054;28;21032;-86
2021/10/18 08:26:07;;;;;;;22.37;15.90;;;10.20;99.90;;;;;;5124188;28;20448;-87
2021/10/18 08:28:35;;;;;;;22.27;15.57;;;10.10;99.90;;;;;;5124676;28;20538;-84
2021/10/18 08:31:01;;;;;;;21.87;15.83;;;9.90;99.90;;;;;;5122120;28;20455;-87
2021/10/18 08:33:34;;;;;;;19.83;16.47;;;9.90;99.90;;;;;;5121359;28;20455;-87
2021/10/18 08:36:04;;;;;;;18.90;15.23;;;9.90;99.90;;;;;;5116725;28;20440;-85
2021/10/18 08:38:49;;;;;;;24.70;17.33;;;9.90;99.90;;;;;;5118852;28;20838;-87
2021/10/18 08:41:20;;;;;;;23.17;17.02;;;9.90;99.90;;;;;;5113418;28;20987;-85
2021/10/18 08:46:33;;;;;;;21.57;15.87;;;10.10;99.90;;;;;;5120386;28;20200;-86
2021/10/18 08:49:00;;;;;;;18.00;15.32;;;10.20;99.90;;;;;;5120631;28;21027;-85
2021/10/18 08:51:27;;;;;;;17.73;15.40;;;10.30;99.90;;;;;;5120036;28;20204;-86
2021/10/18 08:53:54;;;;;;;23.03;17.43;;;10.30;99.90;;;;;;5121985;28;20444;-87
2021/10/18 08:56:21;;;;;;;23.00;15.83;;;10.30;99.90;;;;;;5124244;28;20452;-86
2021/10/18 08:58:50;;;;;;;23.17;17.03;;;10.40;99.90;;;;;;5124261;28;20479;-87
2021/10/18 09:01:17;;;;;;;21.60;16.80;;;10.50;99.90;;;;;;5119604;28;20893;-85
2021/10/18 09:03:45;;;;;;;23.80;18.53;;;10.50;99.90;;;;;;5108652;28;20485;-85
2021/10/18 09:06:15;;;;;;;18.87;15.17;;;10.60;99.90;;;;;;5113736;28;20815;-86
2021/10/18 09:08:44;;;;;;;21.87;16.63;;;10.70;99.90;;;;;;5105719;28;20588;-85
2021/10/18 09:11:14;;;;;;;23.90;17.83;;;10.80;99.90;;;;;;5102649;28;20459;-85
2021/10/18 09:13:55;;;;;;;18.47;15.80;;;10.90;99.90;;;;;;5088236;28;20567;-86
2021/10/18 09:16:24;;;;;;;19.70;14.80;;;11.00;99.90;;;;;;5089320;28;20442;-84
2021/10/18 09:19:05;;;;;;;18.00;14.73;;;11.00;99.90;;;;;;5104207;28;20461;-84
2021/10/18 09:21:33;;;;;;;23.43;16.90;;;11.00;99.90;;;;;;5097930;28;20847;-86
2021/10/18 09:24:02;;;;;;;23.70;16.33;;;11.00;99.90;;;;;;5083124;28;20541;-85
2021/10/18 09:26:31;;;;;;;18.83;14.03;;;11.10;99.90;;;;;;5085616;28;20550;-86
2021/10/18 09:29:04;;;;;;;25.37;16.63;;;11.10;99.90;;;;;;5085778;28;20478;-84
2021/10/18 09:31:32;;;;;;;35.40;17.80;;;11.20;99.90;;;;;;5103205;28;20476;-85
2021/10/18 09:34:11;;;;;;;20.03;15.83;;;11.20;99.90;;;;;;5105847;28;20477;-85
2021/10/18 09:36:39;;;;;;;21.53;16.27;;;11.20;99.90;;;;;;5087252;28;20451;-85
2021/10/18 09:39:34;;;;;;;25.17;17.43;;;11.20;99.90;;;;;;5085614;28;20513;-84
2021/10/18 09:42:03;;;;;;;18.97;15.83;;;11.40;99.90;;;;;;5079614;28;20464;-86
2021/10/18 09:44:57;;;;;;;19.73;15.83;;;11.50;99.90;;;;;;5084470;28;20447;-86
2021/10/18 10:52:57;;;;;;;19.13;15.47;;;13.50;99.90;;;;;;5080489;28;20505;-85
2021/10/18 10:55:28;;;;;;;16.80;15.00;;;13.60;99.90;;;;;;5099787;28;20530;-88
2021/10/18 10:58:01;;;;;;;19.33;16.23;;;13.60;99.90;;;;;;5101107;28;20453;-87
2021/10/18 11:00:40;;;;;;;18.20;15.40;;;13.80;99.90;;;;;;5103159;28;20546;-86
2021/10/18 11:03:39;;;;;;;21.90;15.20;;;14.10;99.90;;;;;;5102375;28;20478;-86
2021/10/18 11:06:14;;;;;;;19.67;15.40;;;14.30;99.90;;;;;;5082808;28;20518;-87
2021/10/18 11:08:43;;;;;;;16.37;14.10;;;14.70;99.90;;;;;;5101467;28;20490;-86
2021/10/18 11:11:18;;;;;;;17.47;14.30;;;15.30;99.90;;;;;;5099708;28;20447;-86
2021/10/18 11:13:58;;;;;;;15.90;14.27;;;15.80;99.90;;;;;;5097679;28;20859;-88
2021/10/18 11:16:48;;;;;;;16.07;14.30;;;16.10;99.40;;;;;;5083773;28;20443;-85
2021/10/18 11:19:22;;;;;;;18.07;14.30;;;16.70;98.70;;;;;;5067167;28;20504;-84
2021/10/18 11:21:56;;;;;;;14.93;13.33;;;16.90;97.70;;;;;;5076190;28;20925;-82
2021/10/18 11:24:23;;;;;;;16.80;13.50;;;16.90;96.90;;;;;;5080518;28;20816;-84
2021/10/18 11:26:54;;;;;;;15.33;13.40;;;17.30;97.10;;;;;;5097701;28;20466;-85
2021/10/18 11:29:30;;;;;;;14.33;12.73;;;18.10;96.90;;;;;;5095650;28;20472;-85
2021/10/18 11:32:06;;;;;;;16.03;13.90;;;18.70;95.30;;;;;;5096941;28;20453;-84
2021/10/18 11:34:34;;;;;;;16.10;14.40;;;19.70;94.30;;;;;;5093186;28;20459;-85
2021/10/18 11:37:01;;;;;;;15.67;14.10;;;20.30;92.20;;;;;;5096100;28;20474;-84
2021/10/18 11:39:29;;;;;;;15.63;14.03;;;21.00;91.50;;;;;;5101829;28;20462;-84
2021/10/18 11:42:06;;;;;;;16.37;14.53;;;21.50;91.00;;;;;;5094236;28;20868;-87
2021/10/18 11:44:45;;;;;;;18.50;16.70;;;21.80;87.30;;;;;;5093207;28;20436;-86
2021/10/18 11:47:34;;;;;;;18.03;14.10;;;21.40;85.60;;;;;;5095280;28;20547;-85
2021/10/18 11:50:20;;;;;;;20.27;14.60;;;21.10;85.30;;;;;;5092442;28;20565;-85
2021/10/18 11:52:52;;;;;;;15.33;13.73;;;20.80;87.80;;;;;;5096990;28;20951;-86
2021/10/18 11:55:22;;;;;;;16.43;14.83;;;20.70;85.90;;;;;;5095393;28;20473;-85
2021/10/18 11:57:52;;;;;;;16.20;14.50;;;20.20;86.90;;;;;;5098604;28;20948;-85
2021/10/18 12:00:25;;;;;;;16.33;14.37;;;20.40;86.70;;;;;;5100312;28;20458;-86
2021/10/18 12:02:52;;;;;;;15.40;13.80;;;20.60;86.30;;;;;;5097906;28;20466;-85
2021/10/18 12:05:23;;;;;;;14.73;13.40;;;20.90;86.40;;;;;;5096488;28;20491;-85
2021/10/18 12:07:51;;;;;;;15.17;12.70;;;21.60;86.30;;;;;;5091983;28;20506;-85
2021/10/18 12:10:21;;;;;;;15.07;13.47;;;22.20;82.60;;;;;;5096338;28;20977;-85
2021/10/18 12:13:23;;;;;;;13.83;12.43;;;22.60;80.90;;;;;;5096285;28;20516;-84
2021/10/18 12:16:12;;;;;;;17.30;15.60;;;23.20;80.40;;;;;;5089202;28;20466;-85
2021/10/18 12:18:45;;;;;;;12.87;11.73;;;23.70;78.80;;;;;;5090181;28;20496;-85
2021/10/18 12:21:14;;;;;;;12.83;11.50;;;23.80;77.00;;;;;;5101754;28;20448;-84
2021/10/18 12:23:49;;;;;;;13.33;12.03;;;23.50;76.40;;;;;;5103164;28;20471;-85
2021/10/18 12:26:19;;;;;;;12.70;11.57;;;23.30;74.70;;;;;;5091953;28;20468;-85
2021/10/18 12:28:50;;;;;;;13.17;11.33;;;23.70;75.00;;;;;;5078998;28;20501;-84
2021/10/18 12:31:31;;;;;;;11.67;10.67;;;23.90;74.40;;;;;;5089697;28;20450;-85
2021/10/18 12:34:10;;;;;;;12.13;10.93;;;24.30;73.90;;;;;;5089085;28;20556;-85
2021/10/18 12:36:48;;;;;;;12.87;11.57;;;24.60;72.40;;;;;;5103585;28;20916;-85
2021/10/18 12:39:15;;;;;;;13.40;11.93;;;25.20;70.40;;;;;;5100192;28;20549;-84
2021/10/18 12:41:43;;;;;;;13.17;12.07;;;25.30;68.50;;;;;;5099736;28;20962;-87
2021/10/18 12:44:13;;;;;;;12.67;11.37;;;24.90;68.90;;;;;;5098882;28;20457;-85
2021/10/18 12:46:42;;;;;;;11.37;10.37;;;24.60;69.20;;;;;;5097639;28;20470;-87
2021/10/18 12:49:08;;;;;;;11.07;9.97;;;24.40;68.40;;;;;;5099293;28;20484;-85
2021/10/18 12:51:41;;;;;;;11.20;10.17;;;24.50;69.20;;;;;;5102529;28;20454;-85
2021/10/18 12:54:27;;;;;;;12.73;11.47;;;24.60;67.40;;;;;;5101188;28;20457;-85
2021/10/18 12:57:02;;;;;;;14.80;12.93;;;24.20;68.60;;;;;;5101532;28;21019;-85
2021/10/18 12:59:32;;;;;;;12.37;11.13;;;23.70;70.10;;;;;;5100751;28;20464;-86
2021/10/18 13:02:19;;;;;;;13.17;11.90;;;23.40;69.60;;;;;;5109492;28;20455;-85
2021/10/18 13:05:10;;;;;;;14.10;12.60;;;23.10;71.30;;;;;;5100884;28;21025;-85
2021/10/18 13:07:38;;;;;;;11.67;10.60;;;22.80;70.00;;;;;;5083076;28;20541;-83
2021/10/18 13:10:07;;;;;;;13.37;12.03;;;23.10;71.60;;;;;;5099879;28;20474;-84
2021/10/18 13:12:34;;;;;;;12.07;10.90;;;22.80;71.20;;;;;;5107744;28;20456;-82
2021/10/18 13:15:27;;;;;;;11.00;9.90;;;22.70;72.60;;;;;;5106131;28;20450;-85
2021/10/18 13:24:53;;;;;;;12.87;11.40;;;22.10;75.20;;;;;;5008039;28;20441;-85
2021/10/18 13:27:20;;;;;;;11.63;10.43;;;21.60;75.10;;;;;;5109951;28;20447;-86
2021/10/18 13:29:48;;;;;;;12.97;11.87;;;21.30;76.40;;;;;;5108789;28;21022;-86
2021/10/18 13:32:23;;;;;;;11.20;10.07;;;21.00;77.60;;;;;;5106936;28;20450;-86
2021/10/18 13:37:58;;;;;;;11.00;10.00;;;20.30;80.10;;;;;;5110507;28;20465;-85
2021/10/18 13:40:27;;;;;;;12.47;11.30;;;19.70;81.10;;;;;;5111527;28;20477;-85
2021/10/18 13:42:54;;;;;;;14.63;11.30;;;19.30;82.10;;;;;;5111434;28;20525;-85
2021/10/18 13:49:08;;;;;;;13.10;11.83;;;19.00;83.80;;;;;;5098996;28;20469;-85
2021/10/18 13:51:37;;;;;;;11.13;9.97;;;18.80;84.80;;;;;;5110428;28;20479;-86
2021/10/18 13:54:04;;;;;;;12.50;10.50;;;18.80;85.40;;;;;;5108752;28;20430;-85
2021/10/18 13:56:31;;;;;;;13.80;11.60;;;18.80;85.80;;;;;;5109579;28;20513;-85
2021/10/18 13:58:58;;;;;;;12.50;10.87;;;18.80;85.50;;;;;;5109410;28;20500;-85
2021/10/18 14:01:25;;;;;;;12.30;11.00;;;18.60;86.00;;;;;;5106511;28;20449;-84
2021/10/18 14:03:51;;;;;;;11.97;10.87;;;18.60;86.30;;;;;;5106788;28;20526;-85
2021/10/18 14:06:19;;;;;;;10.70;9.43;;;18.60;87.30;;;;;;5103979;28;20491;-83
2021/10/18 14:08:47;;;;;;;12.00;10.87;;;18.70;87.80;;;;;;5097096;28;20467;-84
2021/10/18 14:14:36;;;;;;;15.30;11.50;;;18.50;86.50;;;;;;5054122;28;20443;-84
2021/10/18 14:17:13;;;;;;;12.73;11.33;;;18.50;87.10;;;;;;5057337;28;20591;-86
2021/10/18 14:19:40;;;;;;;13.10;9.90;;;18.40;87.30;;;;;;5083882;28;20493;-86
2021/10/18 14:22:08;;;;;;;10.50;9.40;;;18.20;88.30;;;;;;5092003;28;20486;-85
2021/10/18 14:24:43;;;;;;;11.37;10.37;;;18.20;89.20;;;;;;5117060;28;20463;-85
2021/10/18 14:27:10;;;;;;;12.13;10.77;;;18.10;88.70;;;;;;5096312;28;20484;-87